WetterOnline ( http://www.wetteronline.de )

Wetter aktuell Weißenburg

Aktuelles Wetter: Weißenburg (424m)

6-stündlich | Neueste Meldungen
Ortszeit Temperatur Wetter
Sa, 21.04. 14:00 24.5° C wolkenlos
Sa, 21.04. 8:00 10.7° C leicht bewölkt
Sa, 21.04. 2:00 11.5° C wolkenlos
Fr, 20.04. 20:00 23.6° C leicht bewölkt
Fr, 20.04. 14:00 24.1° C wolkenlos
Fr, 20.04. 8:00 10.0° C fast wolkenlos
Fr, 20.04. 2:00 10.7° C wolkig
Do, 19.04. 20:00 20.4° C wolkig
Ortszeit Temperatur Wetter
Sa, 21.04. 17:30 25.3° C fast wolkenlos
Sa, 21.04. 17:20 25.3° C fast wolkenlos
Sa, 21.04. 17:10 25.2° C leicht bewölkt
Sa, 21.04. 17:00 24.9° C leicht bewölkt
Sa, 21.04. 16:50 24.9° C leicht bewölkt
Sa, 21.04. 16:40 25.3° C fast wolkenlos
Sa, 21.04. 16:30 25.0° C wolkenlos
Sa, 21.04. 16:00 25.5° C wolkenlos
Sa, 21.04. 15:30 25.4° C wolkenlos
Sa, 21.04. 15:00 25.5° C leicht bewölkt
Sa, 21.04. 14:30 25.0° C wolkenlos
Ortszeit Relative Feuchte Sichtweite
Sa, 21.04. 14:00 32% 26 km
Sa, 21.04. 8:00 86% 24 km
Sa, 21.04. 2:00 81% 30 km
Fr, 20.04. 20:00 37% 50 km
Fr, 20.04. 14:00 39% 21 km
Fr, 20.04. 8:00 86% 23 km
Fr, 20.04. 2:00 76% 40 km
Do, 19.04. 20:00 37% 70 km
Ortszeit Relative Feuchte Sichtweite
Sa, 21.04. 17:30 32% 30 km
Sa, 21.04. 17:20 32% -
Sa, 21.04. 17:10 32% -
Sa, 21.04. 17:00 34% 30 km
Sa, 21.04. 16:50 34% -
Sa, 21.04. 16:40 35% -
Sa, 21.04. 16:30 34% 29 km
Sa, 21.04. 16:00 33% 23 km
Sa, 21.04. 15:30 33% 23 km
Sa, 21.04. 15:00 35% 19 km
Sa, 21.04. 14:30 37% 23 km
Ortszeit Niederschlagsmenge Niederschlagsart
Sa, 21.04. 14:00 0.0 l/m2 in 6 Std. -
Sa, 21.04. 8:00 0.0 l/m2 in 12 Std. -
Sa, 21.04. 2:00 0.0 l/m2 in 6 Std. -
Fr, 20.04. 20:00 0.0 l/m2 in 12 Std. -
Fr, 20.04. 14:00 0.0 l/m2 in 6 Std. -
Fr, 20.04. 8:00 0.0 l/m2 in 12 Std. -
Fr, 20.04. 2:00 0.0 l/m2 in 6 Std. -
Do, 19.04. 20:00 0.0 l/m2 in 12 Std. -
Ortszeit Niederschlagsmenge Niederschlagsart
Sa, 21.04. 17:30 0.0 l/m2 in 1 Std. -
Sa, 21.04. 17:20 keine Meldung -
Sa, 21.04. 17:10 keine Meldung -
Sa, 21.04. 17:00 0.0 l/m2 in 1 Std. -
Sa, 21.04. 16:50 keine Meldung -
Sa, 21.04. 16:40 keine Meldung -
Sa, 21.04. 16:30 0.0 l/m2 in 1 Std. -
Sa, 21.04. 16:00 0.0 l/m2 in 1 Std. -
Sa, 21.04. 15:30 0.0 l/m2 in 1 Std. -
Sa, 21.04. 15:00 0.0 l/m2 in 1 Std. -
Sa, 21.04. 14:30 0.0 l/m2 in 1 Std. -
Ortszeit Stärke Spitze Richtung
km/h Bft. km/h Grad Sektor
Sa, 21.04. 14:00 14 3 25 320° NW
Sa, 21.04. 8:00 9 2 17 210° SW
Sa, 21.04. 2:00 9 2 17 190° S
Fr, 20.04. 20:00 7 2 29 180° S
Fr, 20.04. 14:00 13 3 33 130° SO
Fr, 20.04. 8:00 4 1 11 270° W
Fr, 20.04. 2:00 4 1 14 220° SW
Do, 19.04. 20:00 11 2 36 90° O
Ortszeit Stärke Spitze Richtung
km/h Bft. km/h Grad Sektor
Sa, 21.04. 17:30 13 3 24 330° NW
Sa, 21.04. 17:20 13 3 - 330° NW
Sa, 21.04. 17:10 18 3 - 320° NW
Sa, 21.04. 17:00 17 3 26 300° NW
Sa, 21.04. 16:50 17 3 - 300° NW
Sa, 21.04. 16:40 19 3 - 300° NW
Sa, 21.04. 16:30 17 3 26 290° W
Sa, 21.04. 16:00 15 3 26 300° NW
Sa, 21.04. 15:30 18 3 25 300° NW
Sa, 21.04. 15:00 15 3 26 310° NW
Sa, 21.04. 14:30 14 3 22 300° NW
Ortszeit Untergrenze Bedeckung Gattung
total tief tief mittel hoch
Sa, 21.04. 14:00 - 0/8 0/8 - - -
Sa, 21.04. 8:00 3300 m 8/8 1/8 - - -
Sa, 21.04. 2:00 - 0/8 0/8 - - -
Fr, 20.04. 20:00 9000 m 8/8 0/8 - - -
Fr, 20.04. 14:00 12000 m 0/8 0/8 - - -
Fr, 20.04. 8:00 10500 m 2/8 0/8 - - -
Fr, 20.04. 2:00 8700 m 8/8 0/8 - - -
Do, 19.04. 20:00 3600 m 8/8 2/8 - - -
Ortszeit Bedeckungsgrad in Achtel und Wolkenuntergrenze
Sa, 21.04. 17:30 2(12000m)
Sa, 21.04. 17:20 2(12000m)
Sa, 21.04. 17:10 3(12000m)
Sa, 21.04. 17:00 5(12000m)
Sa, 21.04. 16:50 5(12000m)
Sa, 21.04. 16:40 2(12000m)
Sa, 21.04. 16:30 keine Wolken
Sa, 21.04. 16:00 keine Wolken
Sa, 21.04. 15:30 keine Wolken
Sa, 21.04. 15:00 4(10500m)
Sa, 21.04. 14:30 keine Wolken
Ortszeit Luftdruck NN (hPa) Tendenz (hPa in 3 Std.)
Sa, 21.04. 14:00 1018 - 0,7
Sa, 21.04. 8:00 1021 + 0,3
Sa, 21.04. 2:00 1021 - 0,7
Fr, 20.04. 20:00 1020 - 1,0
Fr, 20.04. 14:00 1022 - 1,0
Fr, 20.04. 8:00 1026 - 0,1
Fr, 20.04. 2:00 1027 - 0,6
Do, 19.04. 20:00 1026 - 0,5
Ortszeit Luftdruck NN (hPa) Tendenz (hPa in 3 Std.)
Sa, 21.04. 17:30 1016 - 1,1
Sa, 21.04. 17:20 1016 keine Meldung
Sa, 21.04. 17:10 1017 keine Meldung
Sa, 21.04. 17:00 1017 - 1,2
Sa, 21.04. 16:50 1017 keine Meldung
Sa, 21.04. 16:40 1017 keine Meldung
Sa, 21.04. 16:30 1017 - 1,0
Sa, 21.04. 16:00 1017 - 1,0
Sa, 21.04. 15:30 1017 - 1,1
Sa, 21.04. 15:00 1017 - 1,0
Sa, 21.04. 14:30 1018 - 1,0
Ortszeit Schneehöhe (cm)
Sa, 21.04. 14:00 0
Sa, 21.04. 8:00 0
Sa, 21.04. 2:00 0
Fr, 20.04. 20:00 0
Fr, 20.04. 14:00 0
Fr, 20.04. 8:00 0
Fr, 20.04. 2:00 0
Do, 19.04. 20:00 0
Ortszeit Schneehöhe (cm)
Sa, 21.04. 17:30 0
Sa, 21.04. 17:20 0
Sa, 21.04. 17:10 0
Sa, 21.04. 17:00 0
Sa, 21.04. 16:50 0
Sa, 21.04. 16:40 0
Sa, 21.04. 16:30 0
Sa, 21.04. 16:00 0
Sa, 21.04. 15:30 0
Sa, 21.04. 15:00 0
Sa, 21.04. 14:30 0
Link zu dieser Seite / Seite empfehlen

Das Wetter in ...